Time;durP1;ratioP1;P1;durP2;ratioP2;P2;SDS_P1;SDS_P2;PMS_P1;PMS_P2;Temp;Humidity;BMP_temperature;BMP_pressure;BME280_temperature;BME280_humidity;BME280_pressure;Samples;Min_cycle;Max_cycle;Signal;HPM_P1;HPM_P2
2021/12/21 00:00:52;;;;;;;27.40;10.07;;;;;;;;;;5131061;27;20055;-70
2021/12/21 00:03:20;;;;;;;25.60;10.70;;;;;;;;;;5126403;27;20052;-71
2021/12/21 00:05:46;;;;;;;19.33;9.15;;;;;;;;;;5118410;27;20169;-68
2021/12/21 00:08:14;;;;;;;23.58;10.00;;;;;;;;;;5129865;27;20064;-69
2021/12/21 00:10:43;;;;;;;18.58;10.15;;;;;;;;;;5129690;27;20095;-70
2021/12/21 00:16:02;;;;;;;21.15;9.82;;;;;;;;;;5121064;27;20058;-71
2021/12/21 00:21:08;;;;;;;22.67;9.63;;;;;;;;;;5128947;27;20050;-70
2021/12/21 00:23:38;;;;;;;19.95;9.90;;;;;;;;;;5119884;27;20134;-69
2021/12/21 00:26:14;;;;;;;21.85;10.13;;;;;;;;;;5132741;27;20056;-69
2021/12/21 00:28:52;;;;;;;18.35;8.90;;;;;;;;;;5122860;27;20414;-69
2021/12/21 00:31:19;;;;;;;19.67;9.73;;;;;;;;;;5130530;27;20488;-69
2021/12/21 00:33:47;;;;;;;18.77;9.75;;;;;;;;;;5134271;27;20139;-69
2021/12/21 00:36:14;;;;;;;19.98;10.50;;;;;;;;;;5133852;27;20071;-69
2021/12/21 00:38:40;;;;;;;21.45;9.25;;;;;;;;;;5133898;27;20051;-69
2021/12/21 00:41:07;;;;;;;22.60;9.95;;;;;;;;;;5126771;27;20145;-69
2021/12/21 00:43:33;;;;;;;19.23;9.07;;;;;;;;;;5133581;27;20529;-69
2021/12/21 00:45:59;;;;;;;27.00;11.13;;;;;;;;;;5128434;27;20131;-69
2021/12/21 00:48:31;;;;;;;13.82;8.25;;;;;;;;;;5124029;27;20055;-70
2021/12/21 00:50:58;;;;;;;25.67;9.55;;;;;;;;;;5129999;27;20051;-70
2021/12/21 00:53:25;;;;;;;17.92;9.70;;;;;;;;;;5133382;27;20056;-68
2021/12/21 00:55:52;;;;;;;22.70;9.43;;;;;;;;;;5133358;27;20051;-69
2021/12/21 00:58:19;;;;;;;19.15;9.88;;;;;;;;;;5133984;27;20079;-70
2021/12/21 01:00:45;;;;;;;22.10;10.18;;;;;;;;;;5132073;27;20079;-70
2021/12/21 01:03:14;;;;;;;19.20;8.55;;;;;;;;;;5131698;27;20985;-70
2021/12/21 01:05:52;;;;;;;23.60;9.63;;;;;;;;;;5131640;27;20048;-68
2021/12/21 01:08:23;;;;;;;26.77;10.00;;;;;;;;;;5132315;27;20087;-69
2021/12/21 01:11:09;;;;;;;24.60;8.80;;;;;;;;;;5128150;27;20139;-69
2021/12/21 01:13:46;;;;;;;20.70;9.32;;;;;;;;;;5124507;27;20083;-69
2021/12/21 01:16:20;;;;;;;20.40;9.65;;;;;;;;;;5125881;27;20059;-70
2021/12/21 01:21:42;;;;;;;19.63;9.37;;;;;;;;;;5132035;27;20059;-71
2021/12/21 01:24:22;;;;;;;16.83;9.65;;;;;;;;;;5131392;27;20265;-70
2021/12/21 01:27:09;;;;;;;15.30;8.50;;;;;;;;;;5123767;27;20158;-68
2021/12/21 01:29:50;;;;;;;18.48;9.18;;;;;;;;;;5125972;27;20083;-69
2021/12/21 01:35:11;;;;;;;23.23;9.38;;;;;;;;;;5123574;27;20060;-71
2021/12/21 01:37:55;;;;;;;19.40;9.07;;;;;;;;;;5132650;27;20047;-71
2021/12/21 01:40:36;;;;;;;17.73;9.43;;;;;;;;;;5131097;27;20040;-70
2021/12/21 01:43:12;;;;;;;23.08;9.68;;;;;;;;;;5130672;27;20530;-70
2021/12/21 01:51:10;;;;;;;17.50;8.82;;;;;;;;;;5130135;27;20135;-69
2021/12/21 01:53:37;;;;;;;20.00;8.45;;;;;;;;;;5132717;27;20047;-71
2021/12/21 01:56:04;;;;;;;19.60;9.02;;;;;;;;;;5132525;27;20053;-71
2021/12/21 01:58:30;;;;;;;25.33;9.05;;;;;;;;;;5132620;27;20052;-69
2021/12/21 02:00:56;;;;;;;19.95;8.73;;;;;;;;;;5126599;27;20238;-69
2021/12/21 02:03:23;;;;;;;21.88;9.60;;;;;;;;;;5124903;27;20144;-69
2021/12/21 02:05:49;;;;;;;19.50;9.80;;;;;;;;;;5120745;27;20059;-70
2021/12/21 02:08:16;;;;;;;24.85;10.07;;;;;;;;;;5131422;27;20062;-71
2021/12/21 02:10:42;;;;;;;15.85;8.23;;;;;;;;;;5126585;27;20139;-70
2021/12/21 02:13:08;;;;;;;12.73;8.05;;;;;;;;;;5119354;27;20176;-70
2021/12/21 02:15:35;;;;;;;19.20;9.18;;;;;;;;;;5123938;27;20052;-69
2021/12/21 02:18:40;;;;;;;18.23;8.02;;;;;;;;;;5130592;27;20044;-70
2021/12/21 02:20:58;;;;;;;17.38;8.48;;;;;;;;;;5124572;27;20051;-70
2021/12/21 02:23:32;;;;;;;18.95;8.32;;;;;;;;;;5131526;27;20048;-70
2021/12/21 02:30:55;;;;;;;15.30;8.13;;;;;;;;;;5121293;27;20059;-69
2021/12/21 02:33:22;;;;;;;17.20;8.52;;;;;;;;;;5133468;27;20047;-69
2021/12/21 02:35:49;;;;;;;24.98;9.40;;;;;;;;;;5136155;27;20055;-71
2021/12/21 02:38:15;;;;;;;15.48;8.60;;;;;;;;;;5134691;27;20460;-68
2021/12/21 02:40:42;;;;;;;14.40;7.60;;;;;;;;;;5136110;27;20055;-68
2021/12/21 02:43:10;;;;;;;19.52;9.15;;;;;;;;;;5135793;27;20056;-69
2021/12/21 02:45:38;;;;;;;13.57;8.32;;;;;;;;;;5133580;27;20468;-69
2021/12/21 02:48:05;;;;;;;17.85;8.43;;;;;;;;;;5105864;27;20083;-68
2021/12/21 02:50:33;;;;;;;17.90;8.57;;;;;;;;;;5133997;27;20138;-69
2021/12/21 02:53:02;;;;;;;17.20;8.27;;;;;;;;;;5120236;27;20058;-69
2021/12/21 02:55:28;;;;;;;15.80;8.32;;;;;;;;;;5125089;27;20050;-69
2021/12/21 02:57:57;;;;;;;19.15;9.02;;;;;;;;;;5129304;27;20138;-69
2021/12/21 03:00:25;;;;;;;16.10;8.48;;;;;;;;;;5129123;27;20051;-69
2021/12/21 03:02:52;;;;;;;17.83;9.00;;;;;;;;;;5134375;27;20533;-69
2021/12/21 03:05:19;;;;;;;17.42;7.70;;;;;;;;;;5134808;27;20044;-69
2021/12/21 03:08:07;;;;;;;11.55;7.57;;;;;;;;;;5133548;27;20077;-71
2021/12/21 03:10:33;;;;;;;16.88;8.05;;;;;;;;;;5134352;27;20104;-69
2021/12/21 03:15:45;;;;;;;18.13;7.73;;;;;;;;;;5134654;27;20576;-69
2021/12/21 03:18:11;;;;;;;25.00;9.48;;;;;;;;;;5134769;27;20139;-70
2021/12/21 03:20:37;;;;;;;15.32;7.75;;;;;;;;;;5114087;27;20052;-69
2021/12/21 03:23:04;;;;;;;18.33;8.63;;;;;;;;;;5126770;27;20062;-69
2021/12/21 03:25:30;;;;;;;23.15;8.63;;;;;;;;;;5132810;27;20459;-69
2021/12/21 03:27:56;;;;;;;18.05;7.50;;;;;;;;;;5132412;27;20138;-69
2021/12/21 03:30:22;;;;;;;19.05;8.30;;;;;;;;;;5132231;27;20052;-70
2021/12/21 03:32:49;;;;;;;17.98;8.20;;;;;;;;;;5134804;27;20070;-70
2021/12/21 03:35:15;;;;;;;17.77;7.22;;;;;;;;;;5132515;27;20494;-70
2021/12/21 03:37:41;;;;;;;16.25;8.23;;;;;;;;;;5120088;27;20052;-70
2021/12/21 03:40:08;;;;;;;12.02;7.47;;;;;;;;;;5125398;27;20054;-69
2021/12/21 03:42:34;;;;;;;16.85;8.13;;;;;;;;;;5132222;27;20058;-71
2021/12/21 03:45:01;;;;;;;14.05;7.13;;;;;;;;;;5134786;27;20147;-70
2021/12/21 03:47:27;;;;;;;16.40;7.32;;;;;;;;;;5134248;27;20062;-70
2021/12/21 03:49:55;;;;;;;13.02;8.07;;;;;;;;;;5125413;27;20147;-70
2021/12/21 03:52:24;;;;;;;14.45;7.45;;;;;;;;;;5133505;27;20058;-70
2021/12/21 03:54:51;;;;;;;16.08;7.28;;;;;;;;;;5123159;27;20470;-70
2021/12/21 03:57:18;;;;;;;18.17;8.15;;;;;;;;;;5133014;27;20151;-70
2021/12/21 03:59:45;;;;;;;14.07;7.13;;;;;;;;;;5131283;27;20055;-70
2021/12/21 04:02:12;;;;;;;16.88;8.40;;;;;;;;;;5128862;27;20053;-70
2021/12/21 04:04:38;;;;;;;16.75;8.05;;;;;;;;;;5133769;27;20513;-70
2021/12/21 04:07:05;;;;;;;14.93;7.50;;;;;;;;;;5134405;27;20055;-70
2021/12/21 04:09:31;;;;;;;17.15;7.78;;;;;;;;;;5132521;27;20873;-70
2021/12/21 04:12:00;;;;;;;14.18;7.45;;;;;;;;;;5133739;27;20044;-70
2021/12/21 04:14:28;;;;;;;16.95;6.85;;;;;;;;;;5125480;27;20085;-70
2021/12/21 04:16:54;;;;;;;17.45;7.50;;;;;;;;;;5133208;27;20509;-70
2021/12/21 04:19:21;;;;;;;10.43;6.82;;;;;;;;;;5133131;27;21019;-70
2021/12/21 04:21:47;;;;;;;14.57;7.28;;;;;;;;;;5130560;27;20054;-70
2021/12/21 04:24:14;;;;;;;13.90;7.82;;;;;;;;;;5124807;27;20052;-70
2021/12/21 04:26:40;;;;;;;14.18;7.57;;;;;;;;;;5121779;27;20463;-69
2021/12/21 04:29:06;;;;;;;11.70;7.53;;;;;;;;;;5125692;27;20060;-70
2021/12/21 04:31:33;;;;;;;24.10;8.07;;;;;;;;;;5132190;27;20048;-69
2021/12/21 04:33:59;;;;;;;13.73;6.97;;;;;;;;;;5134079;27;20079;-69
2021/12/21 04:36:26;;;;;;;12.65;7.00;;;;;;;;;;5118943;27;20058;-72
2021/12/21 04:38:54;;;;;;;13.70;7.63;;;;;;;;;;5127783;27;20467;-71
2021/12/21 04:41:27;;;;;;;12.88;7.45;;;;;;;;;;5133100;27;20051;-71
2021/12/21 04:43:54;;;;;;;15.27;7.18;;;;;;;;;;5122190;27;20052;-71
2021/12/21 04:46:21;;;;;;;15.82;8.00;;;;;;;;;;5123300;27;20059;-70
2021/12/21 04:48:48;;;;;;;13.57;6.82;;;;;;;;;;5127758;27;20048;-70
2021/12/21 04:51:14;;;;;;;18.40;7.28;;;;;;;;;;5129282;27;20054;-71
2021/12/21 04:53:41;;;;;;;11.45;6.60;;;;;;;;;;5118035;27;20142;-71
2021/12/21 04:56:07;;;;;;;14.45;7.22;;;;;;;;;;5134169;27;20073;-72
2021/12/21 04:58:34;;;;;;;15.88;7.68;;;;;;;;;;5129058;27;20131;-70
2021/12/21 05:01:01;;;;;;;11.95;7.53;;;;;;;;;;5133100;27;20109;-69
2021/12/21 05:03:27;;;;;;;10.48;6.88;;;;;;;;;;5127934;27;20048;-71
2021/12/21 05:05:54;;;;;;;13.27;7.22;;;;;;;;;;5110012;27;20491;-71
2021/12/21 05:08:31;;;;;;;16.08;7.47;;;;;;;;;;5130505;27;20127;-71
2021/12/21 05:11:01;;;;;;;14.48;7.68;;;;;;;;;;5125104;27;20082;-71
2021/12/21 05:13:29;;;;;;;21.10;8.32;;;;;;;;;;5132754;27;20087;-71
2021/12/21 05:15:56;;;;;;;13.55;7.35;;;;;;;;;;5127884;27;20504;-70
2021/12/21 05:18:23;;;;;;;16.75;7.00;;;;;;;;;;5123224;27;20130;-70
2021/12/21 05:20:50;;;;;;;19.45;7.18;;;;;;;;;;5124662;27;20055;-72
2021/12/21 05:23:16;;;;;;;12.02;6.88;;;;;;;;;;5127197;27;20135;-71
2021/12/21 05:25:43;;;;;;;18.00;8.68;;;;;;;;;;5127651;27;20086;-70
2021/12/21 05:28:10;;;;;;;20.10;8.07;;;;;;;;;;5133073;27;20047;-71
2021/12/21 05:30:37;;;;;;;15.15;7.88;;;;;;;;;;5130903;27;20435;-71
2021/12/21 05:33:03;;;;;;;13.45;7.20;;;;;;;;;;5131743;27;20075;-70
2021/12/21 05:35:30;;;;;;;18.35;8.05;;;;;;;;;;5132426;27;20502;-70
2021/12/21 05:38:01;;;;;;;13.65;7.63;;;;;;;;;;5126253;27;20050;-71
2021/12/21 05:40:37;;;;;;;17.00;8.40;;;;;;;;;;5130926;27;20048;-72
2021/12/21 05:43:04;;;;;;;15.02;7.22;;;;;;;;;;5132622;27;20059;-71
2021/12/21 05:45:31;;;;;;;15.85;7.15;;;;;;;;;;5128661;27;20062;-71
2021/12/21 05:47:57;;;;;;;13.88;7.05;;;;;;;;;;5125129;27;20064;-70
2021/12/21 05:50:24;;;;;;;19.27;8.45;;;;;;;;;;5132542;27;20135;-70
2021/12/21 05:52:50;;;;;;;15.85;7.82;;;;;;;;;;5129280;27;20476;-72
2021/12/21 05:55:18;;;;;;;16.52;7.93;;;;;;;;;;5125338;27;20052;-72
2021/12/21 05:57:45;;;;;;;15.63;7.38;;;;;;;;;;5119847;27;20133;-72
2021/12/21 06:00:13;;;;;;;18.92;7.75;;;;;;;;;;5129522;27;20130;-72
2021/12/21 06:02:40;;;;;;;13.55;7.55;;;;;;;;;;5131134;27;20196;-72
2021/12/21 06:05:07;;;;;;;21.58;8.52;;;;;;;;;;5128178;27;20048;-70
2021/12/21 06:07:33;;;;;;;12.63;6.85;;;;;;;;;;5136906;27;20056;-70
2021/12/21 06:10:08;;;;;;;13.65;7.05;;;;;;;;;;5125410;27;20139;-71
2021/12/21 06:26:09;;;;;;;13.52;7.22;;;;;;;;;;5129568;27;20083;-71
2021/12/21 06:28:35;;;;;;;15.77;7.45;;;;;;;;;;5122999;27;20058;-71
2021/12/21 06:31:02;;;;;;;18.38;7.80;;;;;;;;;;5130729;27;20087;-71
2021/12/21 06:33:28;;;;;;;17.48;8.38;;;;;;;;;;5129812;27;20058;-70
2021/12/21 06:35:54;;;;;;;14.18;7.80;;;;;;;;;;5132002;27;20109;-71
2021/12/21 06:38:21;;;;;;;14.70;8.15;;;;;;;;;;5128252;27;20051;-68
2021/12/21 06:40:48;;;;;;;18.02;8.85;;;;;;;;;;5125172;27;20091;-69
2021/12/21 06:43:16;;;;;;;17.30;8.27;;;;;;;;;;5117438;27;20056;-70
2021/12/21 06:53:41;;;;;;;15.05;8.23;;;;;;;;;;5131455;27;20135;-69
2021/12/21 06:56:08;;;;;;;19.95;8.90;;;;;;;;;;5133621;27;20158;-70
2021/12/21 06:58:34;;;;;;;15.68;8.63;;;;;;;;;;5132246;27;20500;-71
2021/12/21 07:01:01;;;;;;;14.60;8.30;;;;;;;;;;5142769;27;20507;-70
2021/12/21 07:03:28;;;;;;;14.70;8.75;;;;;;;;;;5126231;27;20650;-69
2021/12/21 07:05:54;;;;;;;14.82;8.20;;;;;;;;;;5113965;27;20060;-70
2021/12/21 07:08:26;;;;;;;14.68;8.35;;;;;;;;;;5112877;27;20141;-70
2021/12/21 07:18:58;;;;;;;16.20;8.48;;;;;;;;;;5118107;27;20048;-69
2021/12/21 07:21:25;;;;;;;15.85;7.55;;;;;;;;;;5133907;27;20105;-69
2021/12/21 07:23:51;;;;;;;15.95;8.23;;;;;;;;;;5134271;27;20056;-69
2021/12/21 07:26:18;;;;;;;17.20;8.20;;;;;;;;;;5131636;27;20047;-69
2021/12/21 07:28:44;;;;;;;14.82;7.60;;;;;;;;;;5115329;27;20099;-69
2021/12/21 07:31:10;;;;;;;15.68;7.97;;;;;;;;;;5113908;27;20519;-70
2021/12/21 07:33:37;;;;;;;14.80;8.18;;;;;;;;;;5125573;27;20133;-70
2021/12/21 07:36:03;;;;;;;11.18;7.65;;;;;;;;;;5131541;27;20052;-69
2021/12/21 07:38:30;;;;;;;16.00;8.32;;;;;;;;;;5132576;27;20090;-71
2021/12/21 07:40:57;;;;;;;15.98;8.95;;;;;;;;;;5134317;27;20047;-71
2021/12/21 07:43:23;;;;;;;17.05;9.65;;;;;;;;;;5131834;27;20142;-71
2021/12/21 07:45:50;;;;;;;16.70;8.93;;;;;;;;;;5132850;27;20047;-71
2021/12/21 07:48:16;;;;;;;11.35;7.53;;;;;;;;;;5125493;27;20055;-71
2021/12/21 07:50:43;;;;;;;14.45;8.52;;;;;;;;;;5134489;27;20060;-71
2021/12/21 07:53:10;;;;;;;15.38;8.98;;;;;;;;;;5132390;27;20048;-69
2021/12/21 07:55:43;;;;;;;15.00;7.78;;;;;;;;;;5126159;27;20055;-69
2021/12/21 07:58:10;;;;;;;18.33;8.80;;;;;;;;;;5133027;27;20080;-69
2021/12/21 08:00:37;;;;;;;18.52;8.98;;;;;;;;;;5113866;27;20109;-69
2021/12/21 08:03:04;;;;;;;18.65;8.77;;;;;;;;;;5120867;27;20055;-68
2021/12/21 08:05:33;;;;;;;15.48;9.13;;;;;;;;;;5132266;27;20059;-69
2021/12/21 08:08:19;;;;;;;13.38;8.80;;;;;;;;;;5133578;27;20051;-69
2021/12/21 08:10:53;;;;;;;15.68;8.45;;;;;;;;;;5126587;27;20057;-70
2021/12/21 08:13:20;;;;;;;19.83;8.93;;;;;;;;;;5128645;27;20072;-69
2021/12/21 08:15:47;;;;;;;22.95;9.43;;;;;;;;;;5129298;27;20485;-69
2021/12/21 08:18:13;;;;;;;15.38;8.48;;;;;;;;;;5130542;27;20054;-70
2021/12/21 08:20:40;;;;;;;21.92;9.40;;;;;;;;;;5133475;27;20179;-70
2021/12/21 08:23:07;;;;;;;22.73;9.50;;;;;;;;;;5130022;27;20545;-71
2021/12/21 08:25:34;;;;;;;14.60;8.95;;;;;;;;;;5123530;27;20064;-70
2021/12/21 08:28:06;;;;;;;19.35;9.80;;;;;;;;;;5132831;27;20146;-69
2021/12/21 08:30:33;;;;;;;18.15;9.57;;;;;;;;;;5114322;28;20055;-69
2021/12/21 08:32:59;;;;;;;14.68;9.23;;;;;;;;;;5126427;27;20052;-69
2021/12/21 08:35:27;;;;;;;18.10;9.55;;;;;;;;;;5132077;27;20591;-70
2021/12/21 08:38:00;;;;;;;17.75;9.80;;;;;;;;;;5130175;27;20055;-69
2021/12/21 08:40:29;;;;;;;19.30;10.80;;;;;;;;;;5135186;27;20044;-69
2021/12/21 08:42:56;;;;;;;18.98;10.10;;;;;;;;;;5115163;27;20056;-69
2021/12/21 08:45:23;;;;;;;20.02;11.13;;;;;;;;;;5114774;27;20052;-69
2021/12/21 08:47:49;;;;;;;23.60;11.95;;;;;;;;;;5114515;27;20056;-69
2021/12/21 08:50:15;;;;;;;20.40;11.52;;;;;;;;;;5125708;27;20074;-69
2021/12/21 08:52:42;;;;;;;22.52;12.63;;;;;;;;;;5132536;27;20047;-69
2021/12/21 08:55:09;;;;;;;24.35;12.88;;;;;;;;;;5123384;27;20131;-69
2021/12/21 08:57:36;;;;;;;19.63;11.98;;;;;;;;;;5132471;27;20079;-68
2021/12/21 09:00:04;;;;;;;23.77;13.57;;;;;;;;;;5130481;27;20507;-67
2021/12/21 09:02:35;;;;;;;21.02;13.00;;;;;;;;;;5133678;27;20134;-69
2021/12/21 09:05:12;;;;;;;22.80;12.52;;;;;;;;;;5123060;27;20056;-70
2021/12/21 09:07:39;;;;;;;27.85;12.63;;;;;;;;;;5130035;27;20059;-70
2021/12/21 09:10:06;;;;;;;21.33;12.93;;;;;;;;;;5119571;27;20152;-70
2021/12/21 09:12:33;;;;;;;28.50;14.18;;;;;;;;;;5122086;27;20052;-70
2021/12/21 09:14:59;;;;;;;23.30;13.20;;;;;;;;;;5127452;27;20044;-69
2021/12/21 09:17:28;;;;;;;20.92;13.90;;;;;;;;;;5126368;27;20059;-69
2021/12/21 09:19:55;;;;;;;26.35;13.63;;;;;;;;;;5113672;27;20048;-69
2021/12/21 09:22:42;;;;;;;24.55;13.80;;;;;;;;;;5118850;27;20048;-68
2021/12/21 09:25:09;;;;;;;27.95;13.40;;;;;;;;;;5134670;27;20060;-68
2021/12/21 09:27:36;;;;;;;24.45;14.35;;;;;;;;;;5132235;27;20058;-70
2021/12/21 09:30:05;;;;;;;25.30;14.07;;;;;;;;;;5129232;27;20054;-70
2021/12/21 09:32:31;;;;;;;23.27;14.55;;;;;;;;;;5123754;27;20139;-68
2021/12/21 09:34:57;;;;;;;25.92;14.02;;;;;;;;;;5111296;27;20059;-68
2021/12/21 09:37:25;;;;;;;23.13;13.80;;;;;;;;;;5125388;27;20056;-69
2021/12/21 09:39:52;;;;;;;27.85;14.52;;;;;;;;;;5123084;27;20048;-70
2021/12/21 09:42:20;;;;;;;25.27;14.23;;;;;;;;;;5132335;27;20060;-69
2021/12/21 09:44:46;;;;;;;26.25;15.25;;;;;;;;;;5130154;27;20051;-71
2021/12/21 09:47:13;;;;;;;26.92;13.98;;;;;;;;;;5112264;27;20591;-69
2021/12/21 09:49:43;;;;;;;28.33;13.95;;;;;;;;;;5115690;27;20074;-71
2021/12/21 09:52:11;;;;;;;26.65;13.48;;;;;;;;;;5123301;27;20466;-68
2021/12/21 09:54:38;;;;;;;18.35;12.32;;;;;;;;;;5132200;27;20054;-68
2021/12/21 09:57:05;;;;;;;22.90;12.18;;;;;;;;;;5132031;27;20086;-70
2021/12/21 09:59:31;;;;;;;24.80;12.30;;;;;;;;;;5131864;27;20047;-70
2021/12/21 10:01:58;;;;;;;22.70;13.13;;;;;;;;;;5131796;27;20119;-70
2021/12/21 10:04:25;;;;;;;21.60;13.45;;;;;;;;;;5130847;27;20171;-70
2021/12/21 10:06:54;;;;;;;29.88;13.35;;;;;;;;;;5130745;27;20048;-70
2021/12/21 10:09:23;;;;;;;24.88;14.27;;;;;;;;;;5129599;27;20091;-70
2021/12/21 10:12:03;;;;;;;25.92;12.50;;;;;;;;;;5131349;27;20055;-70
2021/12/21 10:14:29;;;;;;;26.05;13.13;;;;;;;;;;5131345;27;20051;-70
2021/12/21 10:16:59;;;;;;;31.45;14.65;;;;;;;;;;5126601;27;20491;-69
2021/12/21 10:19:26;;;;;;;27.42;15.00;;;;;;;;;;5125215;27;20043;-68
2021/12/21 10:21:52;;;;;;;29.50;14.35;;;;;;;;;;5129010;27;20124;-69
2021/12/21 10:24:25;;;;;;;22.52;14.35;;;;;;;;;;5126518;27;20486;-69
2021/12/21 10:26:53;;;;;;;25.67;15.35;;;;;;;;;;5131542;27;20951;-70
2021/12/21 10:29:19;;;;;;;29.17;14.77;;;;;;;;;;5127041;27;20048;-70
2021/12/21 10:31:48;;;;;;;31.13;13.15;;;;;;;;;;5131237;27;20899;-68
2021/12/21 10:34:15;;;;;;;27.58;14.75;;;;;;;;;;5132371;27;20056;-68
2021/12/21 10:36:42;;;;;;;26.75;13.85;;;;;;;;;;5121181;27;20052;-68
2021/12/21 10:39:09;;;;;;;24.50;14.73;;;;;;;;;;5110903;28;20055;-68
2021/12/21 10:41:39;;;;;;;26.27;14.85;;;;;;;;;;5110605;27;20103;-68
2021/12/21 10:44:11;;;;;;;26.13;15.32;;;;;;;;;;5121603;27;20135;-68
2021/12/21 10:46:45;;;;;;;28.10;15.18;;;;;;;;;;5116168;27;20048;-69
2021/12/21 10:49:31;;;;;;;25.40;15.10;;;;;;;;;;5116241;27;20500;-68
2021/12/21 10:52:00;;;;;;;31.67;16.38;;;;;;;;;;5135969;27;20051;-69
2021/12/21 10:54:28;;;;;;;34.80;16.65;;;;;;;;;;5134979;27;20056;-70
2021/12/21 10:56:56;;;;;;;30.05;16.42;;;;;;;;;;5128298;27;20515;-68
2021/12/21 10:59:30;;;;;;;28.90;17.30;;;;;;;;;;5133259;27;20137;-69
2021/12/21 11:02:07;;;;;;;31.00;16.92;;;;;;;;;;5119783;27;20062;-69
2021/12/21 11:04:34;;;;;;;28.20;17.42;;;;;;;;;;5128740;27;20521;-70
2021/12/21 11:07:08;;;;;;;25.67;16.63;;;;;;;;;;5131586;27;20493;-69
2021/12/21 11:09:35;;;;;;;32.90;16.97;;;;;;;;;;5134222;27;20510;-69
2021/12/21 11:12:08;;;;;;;32.17;17.48;;;;;;;;;;5133580;27;20495;-69
2021/12/21 11:14:34;;;;;;;30.55;16.23;;;;;;;;;;5134762;27;20055;-69
2021/12/21 11:17:02;;;;;;;30.60;17.38;;;;;;;;;;5133078;27;20051;-69
2021/12/21 11:19:29;;;;;;;26.98;16.73;;;;;;;;;;5135278;27;20048;-69
2021/12/21 11:21:56;;;;;;;33.78;16.63;;;;;;;;;;5133193;27;20083;-69
2021/12/21 11:24:22;;;;;;;34.75;16.67;;;;;;;;;;5133868;27;20051;-68
2021/12/21 11:26:48;;;;;;;30.77;16.85;;;;;;;;;;5134375;27;20051;-68
2021/12/21 11:29:18;;;;;;;35.95;18.17;;;;;;;;;;5129969;27;20051;-71
2021/12/21 11:31:47;;;;;;;35.38;17.42;;;;;;;;;;5124994;27;20051;-68
2021/12/21 11:34:17;;;;;;;27.33;16.58;;;;;;;;;;5135591;27;20051;-69
2021/12/21 11:39:31;;;;;;;31.50;16.85;;;;;;;;;;5130706;27;20142;-70
2021/12/21 11:41:59;;;;;;;27.60;17.30;;;;;;;;;;5133109;27;20075;-69
2021/12/21 11:44:32;;;;;;;35.28;18.60;;;;;;;;;;5127933;27;20055;-70
2021/12/21 11:47:01;;;;;;;36.15;18.67;;;;;;;;;;5111934;28;20040;-69
2021/12/21 11:49:33;;;;;;;29.55;18.20;;;;;;;;;;5113209;28;20052;-69
2021/12/21 11:52:10;;;;;;;35.75;18.00;;;;;;;;;;5124303;27;20047;-70
2021/12/21 11:54:48;;;;;;;31.55;19.02;;;;;;;;;;5129771;27;20048;-69
2021/12/21 11:57:15;;;;;;;33.53;18.42;;;;;;;;;;5132159;27;20139;-70
2021/12/21 11:59:41;;;;;;;32.97;15.80;;;;;;;;;;5121556;27;20058;-69
2021/12/21 12:02:07;;;;;;;31.63;16.30;;;;;;;;;;5131056;27;20142;-69
2021/12/21 12:04:35;;;;;;;27.98;16.27;;;;;;;;;;5154661;27;20055;-68
2021/12/21 12:07:18;;;;;;;31.02;15.52;;;;;;;;;;5130147;27;20052;-67
2021/12/21 12:09:45;;;;;;;30.98;16.42;;;;;;;;;;5088505;28;20175;-67
2021/12/21 12:12:15;;;;;;;22.45;14.43;;;;;;;;;;5090084;28;20049;-69
2021/12/21 12:14:45;;;;;;;27.45;14.43;;;;;;;;;;5092357;28;20508;-69
2021/12/21 12:17:11;;;;;;;23.50;14.38;;;;;;;;;;5088131;28;20067;-68
2021/12/21 12:19:43;;;;;;;27.50;14.70;;;;;;;;;;5087023;28;20485;-68
2021/12/21 12:22:12;;;;;;;24.98;14.93;;;;;;;;;;5091511;28;20106;-68
2021/12/21 12:24:44;;;;;;;21.55;14.95;;;;;;;;;;5092164;28;20063;-68
2021/12/21 12:27:16;;;;;;;23.90;14.52;;;;;;;;;;5091798;28;20471;-68
2021/12/21 12:29:47;;;;;;;24.55;14.18;;;;;;;;;;5091788;28;20059;-69
2021/12/21 12:32:13;;;;;;;24.83;14.52;;;;;;;;;;5091016;28;20052;-68
2021/12/21 12:34:41;;;;;;;25.33;13.98;;;;;;;;;;5090431;28;20063;-68
2021/12/21 12:37:16;;;;;;;25.15;14.63;;;;;;;;;;5071823;28;20449;-68
2021/12/21 12:39:45;;;;;;;25.38;14.32;;;;;;;;;;5091237;28;20063;-68
2021/12/21 12:42:13;;;;;;;25.17;12.90;;;;;;;;;;5085710;28;20072;-68
2021/12/21 12:44:41;;;;;;;21.05;12.52;;;;;;;;;;5072157;28;20061;-69
2021/12/21 12:47:09;;;;;;;25.92;12.73;;;;;;;;;;5070740;28;20528;-69
2021/12/21 12:49:36;;;;;;;26.92;14.48;;;;;;;;;;5073566;28;20061;-68
2021/12/21 12:52:06;;;;;;;26.27;14.55;;;;;;;;;;5086394;28;20523;-67
2021/12/21 12:54:52;;;;;;;23.85;14.32;;;;;;;;;;5090237;28;20164;-67
2021/12/21 12:57:27;;;;;;;24.90;14.53;;;;;;;;;;5087391;28;20060;-68
2021/12/21 12:59:55;;;;;;;23.95;14.45;;;;;;;;;;5091760;28;20062;-68
2021/12/21 13:02:22;;;;;;;29.90;15.35;;;;;;;;;;5087040;28;20048;-68
2021/12/21 13:04:49;;;;;;;27.60;14.43;;;;;;;;;;5091923;28;20397;-68
2021/12/21 13:07:23;;;;;;;22.65;13.48;;;;;;;;;;5090635;28;20048;-68
2021/12/21 13:09:49;;;;;;;29.42;14.23;;;;;;;;;;5076434;28;20049;-68
2021/12/21 13:12:15;;;;;;;19.05;11.50;;;;;;;;;;5071977;28;20518;-68
2021/12/21 13:14:51;;;;;;;22.13;12.20;;;;;;;;;;5075146;28;20087;-68
2021/12/21 13:17:18;;;;;;;19.05;11.35;;;;;;;;;;5087177;28;20053;-68
2021/12/21 13:19:44;;;;;;;19.83;12.05;;;;;;;;;;5091305;28;20049;-68
2021/12/21 13:22:10;;;;;;;18.85;9.95;;;;;;;;;;5091427;28;20083;-68
2021/12/21 13:24:42;;;;;;;19.05;10.85;;;;;;;;;;5088498;28;20059;-67
2021/12/21 13:27:10;;;;;;;17.05;11.63;;;;;;;;;;5092996;28;20059;-68
2021/12/21 13:29:37;;;;;;;21.05;11.45;;;;;;;;;;5090781;28;20099;-68
2021/12/21 13:32:09;;;;;;;21.85;11.57;;;;;;;;;;5092742;28;20882;-68
2021/12/21 13:34:38;;;;;;;16.90;10.30;;;;;;;;;;5086086;28;20137;-68
2021/12/21 13:37:07;;;;;;;19.25;11.00;;;;;;;;;;5090211;28;20452;-68
2021/12/21 13:39:38;;;;;;;21.85;12.10;;;;;;;;;;5091355;28;20510;-68
2021/12/21 13:42:14;;;;;;;18.33;11.82;;;;;;;;;;5091389;28;20084;-68
2021/12/21 13:44:42;;;;;;;18.52;11.68;;;;;;;;;;5092464;28;20131;-68
2021/12/21 13:47:16;;;;;;;20.45;11.57;;;;;;;;;;5082311;28;20052;-68
2021/12/21 13:50:08;;;;;;;22.40;12.95;;;;;;;;;;5086709;28;20496;-69
2021/12/21 13:52:36;;;;;;;17.85;11.65;;;;;;;;;;5090485;28;20052;-69
2021/12/21 13:55:07;;;;;;;22.65;12.55;;;;;;;;;;5091160;28;20523;-69
2021/12/21 13:57:34;;;;;;;21.85;12.07;;;;;;;;;;5090817;28;20053;-69
2021/12/21 14:00:07;;;;;;;21.50;12.82;;;;;;;;;;5090996;28;20048;-69
2021/12/21 14:02:35;;;;;;;28.77;13.93;;;;;;;;;;5085157;28;20073;-68
2021/12/21 14:05:09;;;;;;;24.15;13.90;;;;;;;;;;5091166;28;20083;-67
2021/12/21 14:07:36;;;;;;;26.50;13.60;;;;;;;;;;5075454;28;20063;-67
2021/12/21 14:10:08;;;;;;;22.30;13.60;;;;;;;;;;5112992;27;20051;-69
2021/12/21 14:12:34;;;;;;;23.80;12.50;;;;;;;;;;5151606;27;20055;-67
2021/12/21 14:15:01;;;;;;;22.50;13.15;;;;;;;;;;5146226;27;20052;-69
2021/12/21 14:17:28;;;;;;;23.88;13.18;;;;;;;;;;5130412;27;20052;-70
2021/12/21 14:19:56;;;;;;;19.40;12.68;;;;;;;;;;5119535;27;20079;-69
2021/12/21 14:22:22;;;;;;;20.35;12.27;;;;;;;;;;5116234;27;20484;-68
2021/12/21 14:24:50;;;;;;;29.92;13.52;;;;;;;;;;5129406;27;20051;-69
2021/12/21 14:27:17;;;;;;;22.40;13.23;;;;;;;;;;5134656;27;20048;-69
2021/12/21 14:29:43;;;;;;;21.77;12.85;;;;;;;;;;5134282;27;20116;-70
2021/12/21 14:34:41;;;;;;;20.77;12.25;;;;;;;;;;5131933;27;20109;-68
2021/12/21 14:37:09;;;;;;;20.60;11.65;;;;;;;;;;5133819;27;20055;-69
2021/12/21 14:39:35;;;;;;;19.75;11.18;;;;;;;;;;5116589;27;20059;-69
2021/12/21 14:42:06;;;;;;;20.67;11.48;;;;;;;;;;5114601;27;20054;-69
2021/12/21 14:44:41;;;;;;;18.23;11.25;;;;;;;;;;5125236;27;20569;-69
2021/12/21 14:47:10;;;;;;;18.50;11.07;;;;;;;;;;5114271;27;20143;-68
2021/12/21 14:49:41;;;;;;;21.45;11.68;;;;;;;;;;5128164;27;20051;-68
2021/12/21 14:52:08;;;;;;;19.40;10.23;;;;;;;;;;5135575;27;20586;-67
2021/12/21 14:54:51;;;;;;;18.23;11.40;;;;;;;;;;5138060;27;20577;-68
2021/12/21 14:57:30;;;;;;;24.15;11.00;;;;;;;;;;5135007;27;20050;-68
2021/12/21 14:59:56;;;;;;;20.45;11.60;;;;;;;;;;5140504;27;20047;-68
2021/12/21 15:02:48;;;;;;;17.65;11.27;;;;;;;;;;5157559;27;20054;-68
2021/12/21 15:05:10;;;;;;;18.33;10.85;;;;;;;;;;5155897;27;20120;-68
2021/12/21 15:07:39;;;;;;;20.88;11.15;;;;;;;;;;5134384;27;20051;-68
2021/12/21 15:10:06;;;;;;;20.17;11.05;;;;;;;;;;5133436;27;20052;-68
2021/12/21 15:12:33;;;;;;;19.27;11.75;;;;;;;;;;5134832;27;20051;-68
2021/12/21 15:14:59;;;;;;;19.40;12.23;;;;;;;;;;5131137;27;20062;-67
2021/12/21 15:17:25;;;;;;;19.70;12.88;;;;;;;;;;5128825;27;20189;-69
2021/12/21 15:19:52;;;;;;;16.17;11.43;;;;;;;;;;5132295;27;20086;-69
2021/12/21 15:22:19;;;;;;;21.27;13.23;;;;;;;;;;5126655;27;20482;-70
2021/12/21 15:24:45;;;;;;;17.88;11.68;;;;;;;;;;5143490;27;20155;-69
2021/12/21 15:27:12;;;;;;;25.02;13.00;;;;;;;;;;5132034;27;20134;-69
2021/12/21 15:29:39;;;;;;;20.30;11.90;;;;;;;;;;5129440;27;20056;-69
2021/12/21 15:32:09;;;;;;;17.25;11.38;;;;;;;;;;5122392;27;20056;-69